Nearby METAR Reports

 

KSJC - San Jose, California, USA
Distance from station: NE 9mi, 14km
Updated: 09/22/2021 7:53pm
Few Clouds
Few Clouds
 Wind from NNW
Wind: NNW 14 mph , 22 km/h
Temperature: 72°F , 22°C
Dew Point: 46°F , 8°C
Humidity: 41%
Barometer: 30.01 inHg , 1016.3 hPa
Clouds: Few Clouds
Visibility: 10 miles , 16 km
Cloud details: Few Clouds 3000 ft
Few Clouds 8000 ft
2021/09/23 02:53 KSJC 230253Z 33012KT 10SM FEW030 FEW080 22/08 A3001 RMK AO2 SLP161 FU FEW030 T02170083 55000
KPAO - Palo Alto, California, USA
Distance from station: NNW 14mi, 23km
Updated: 09/22/2021 7:47pm
Clear
Clear
 Wind from NNW
Wind: NNW 14 mph , 22 km/h
Temperature: 64°F , 18°C
Dew Point: 55°F , 13°C
Humidity: 73%
Barometer: 30.01 inHg , 1016.3 hPa
Clouds: Clear
Visibility: 10 miles , 16 km
2021/09/23 02:47 KPAO 230247Z 33012KT 10SM SKC 18/13 A3001
 
KRHV - San Jose/Reid, California, USA
Distance from station: ENE 12mi, 19km
Updated: 09/22/2021 7:50pm
Few Clouds
Few Clouds
 Wind from NW
Wind: NW 9 mph , 15 km/h
Temperature: 73°F , 23°C
Dew Point: 48°F , 9°C
Humidity: 41%
Barometer: 30.01 inHg , 1016.3 hPa
Clouds: Few Clouds
Visibility: 10 miles , 16 km
Cloud details: Few Clouds 10000 ft
2021/09/23 02:50 KRHV 230250Z 31008KT 10SM FEW100 23/09 A3001
KOAK - Oakland, California, USA
Distance from station: NNW 31mi, 50km
Updated: 09/22/2021 7:53pm
Few Clouds
Few Clouds
 Wind from NW
Wind: NW 8 mph , 13 km/h
Temperature: 63°F , 17°C
Dew Point: 55°F , 13°C
Humidity: 77%
Barometer: 30.01 inHg , 1016.3 hPa
Clouds: Few Clouds
Visibility: 10 miles , 16 km
Cloud details: Few Clouds 500 ft
Few Clouds 20000 ft
2021/09/23 02:53 KOAK 230253Z 31007KT 10SM FEW005 FEW200 17/13 A3001 RMK AO2 SLP162 T01670128 56006
 
KSQL - San Carlos Airpo, California, USA
Distance from station: NW 21mi, 34km
Updated: 09/22/2021 6:47pm
NOT Current
Clear
Clear
 Wind from WNW
Wind: WNW 6 mph , 9 km/h
Temperature: 73°F , 23°C
Dew Point: 50°F , 10°C
Humidity: 44%
Barometer: 30.01 inHg , 1016.3 hPa
Clouds: Clear
Visibility: 10 miles , 16 km
2021/09/23 01:47 KSQL 230147Z 30005KT 10SM CLR 23/10 A3001
KSFO - San Francisco, California, USA
Distance from station: NW 30mi, 49km
Updated: 09/22/2021 7:56pm
Few Clouds
Few Clouds
 Wind from NW
Wind: NW 17 mph , 28 km/h
Temperature: 59°F , 15°C
Dew Point: 54°F , 12°C
Humidity: 82%
Barometer: 30.01 inHg , 1016.3 hPa
Clouds: Few Clouds
Visibility: 10 miles , 16 km
Cloud details: Few Clouds 300 ft
Few Clouds 18000 ft
2021/09/23 02:56 KSFO 230256Z 32015KT 10SM FEW003 FEW180 15/12 A3001 RMK AO2 SLP162 T01500122 55003
 
KE16 - San Martin, California, USA
Distance from station: ESE 27mi, 43km
Updated: 09/22/2021 8:15pm
Partly cloudy
Partly cloudy
 Wind from SSE
Wind: SSE 5 mph , 7 km/h
Temperature: 64°F , 18°C
Dew Point: 54°F , 12°C
Humidity: 68%
Barometer: 30.04 inHg , 1017.3 hPa
Clouds: Partly cloudy
Visibility: 10 miles , 16 km
Cloud details: Partly cloudy 5000 ft
2021/09/23 03:15 KE16 230315Z AUTO 15004KT 10SM SCT050 18/12 A3004 RMK AO2 PWINO PNO
KWVI - Watsonville, California, USA
Distance from station: SSE 27mi, 44km
Updated: 09/22/2021 8:22pm
Overcast
Overcast
 Wind from calm
Wind: Calm
Temperature: 59°F , 15°C
Dew Point: 55°F , 13°C
Humidity: 88%
Barometer: 30.05 inHg , 1017.6 hPa
Clouds: Overcast
Visibility: 10 miles , 16 km
Cloud details: Overcast 500 ft
2021/09/23 03:22 KWVI 230322Z AUTO 00000KT 10SM OVC005 15/13 A3005 RMK AO2 T01500133
 
KHAF - Half Moon Bay, California, USA
Distance from station: WNW 31mi, 50km
Updated: 09/22/2021 8:35pm
Mist, Overcast
Mist, Overcast
 Wind from calm
Wind: Calm
Temperature: 57°F , 14°C
Dew Point: 55°F , 13°C
Humidity: 94%
Barometer: 30.05 inHg , 1017.6 hPa
Summary: Mist
Clouds: Overcast
Visibility: 6 miles , 10 km
Cloud details: Overcast 400 ft
2021/09/23 03:35 KHAF 230335Z AUTO 00000KT 6SM BR OVC004 14/13 A3005 RMK AO2 PWINO
KHWD - Hayward, California, USA
Distance from station: N 28mi, 44km
Updated: 09/22/2021 7:54pm
Clear
Clear
 Wind from WNW
Wind: WNW 8 mph , 13 km/h
Temperature: 63°F , 17°C
Dew Point: 55°F , 13°C
Humidity: 77%
Barometer: 30.00 inHg , 1015.9 hPa
Clouds: Clear
Visibility: 10 miles , 16 km
2021/09/23 02:54 KHWD 230254Z 30007KT 10SM CLR 17/13 A3000 RMK AO2 SLP169 T01720128 55004
 
KLVK - Livermore, California, USA
Distance from station: NNE 31mi, 51km
Updated: 09/22/2021 7:53pm
Clear
Clear
 Wind from WSW
Wind: WSW 7 mph , 11 km/h
Temperature: 73°F , 23°C
Dew Point: 45°F , 7°C
Humidity: 36%
Barometer: 29.99 inHg , 1015.6 hPa
Clouds: Clear
Visibility: 10 miles , 16 km
2021/09/23 02:53 KLVK 230253Z 24006KT 10SM CLR 23/07 A2999 RMK AO2 SLP150 T02280067 55003